Dundalk, Canada
Current Conditions -  °F | °C
As of 2:00 PM on Saturday 20 Dec 2014 (Local Time) from CYBN Reporting Station
Few Clouds Few Clouds  
Wind Chill: 30°   Ceiling: Unl
Heat Index: 30°   Visibility: 9mi
Dew Point: 23°   Wind: 3mph
Humidity: 75%   Direction: 30°NNE
Pressure: 30.23"   Gusts: NA
Location:  44.17°N, 80.38°W
Report Text: CYBN 201900Z AUTO 03003KT 340V090 9SM FEW079 M01/M05 A3023 RMKSLP250
Loading
Personal Weather Stations






























Interactive Weather Map New forecast layout! Learn more

10-Day Weather Forecast

Advertisements
Track Severe Weather on mobile